sensor_id;sensor_type;location;lat;lon;timestamp;P1;durP1;ratioP1;P2;durP2;ratioP2
80788;SDS011;70191;51.114;8.678;2023-06-10T00:01:23;17.45;;;16.35;;
80788;SDS011;70191;51.114;8.678;2023-06-10T00:03:49;18.10;;;17.00;;
80788;SDS011;70191;51.114;8.678;2023-06-10T00:06:16;18.08;;;16.88;;
80788;SDS011;70191;51.114;8.678;2023-06-10T00:08:42;17.70;;;16.58;;
80788;SDS011;70191;51.114;8.678;2023-06-10T00:11:08;17.05;;;15.98;;
80788;SDS011;70191;51.114;8.678;2023-06-10T00:13:33;18.05;;;16.95;;
80788;SDS011;70191;51.114;8.678;2023-06-10T00:15:59;17.80;;;16.80;;
80788;SDS011;70191;51.114;8.678;2023-06-10T00:18:24;18.10;;;16.90;;
80788;SDS011;70191;51.114;8.678;2023-06-10T00:20:51;17.80;;;16.70;;
80788;SDS011;70191;51.114;8.678;2023-06-10T00:23:18;16.80;;;15.80;;
80788;SDS011;70191;51.114;8.678;2023-06-10T00:25:43;17.27;;;16.17;;
80788;SDS011;70191;51.114;8.678;2023-06-10T00:28:09;18.92;;;17.73;;
80788;SDS011;70191;51.114;8.678;2023-06-10T00:30:35;17.40;;;16.35;;
80788;SDS011;70191;51.114;8.678;2023-06-10T00:33:00;17.27;;;16.27;;
80788;SDS011;70191;51.114;8.678;2023-06-10T00:35:25;17.30;;;16.10;;
80788;SDS011;70191;51.114;8.678;2023-06-10T00:37:51;17.80;;;16.70;;
80788;SDS011;70191;51.114;8.678;2023-06-10T00:40:16;16.70;;;15.60;;
80788;SDS011;70191;51.114;8.678;2023-06-10T00:42:42;17.48;;;16.42;;
80788;SDS011;70191;51.114;8.678;2023-06-10T00:45:07;16.83;;;15.82;;
80788;SDS011;70191;51.114;8.678;2023-06-10T00:47:34;17.85;;;16.63;;
80788;SDS011;70191;51.114;8.678;2023-06-10T00:50:00;16.73;;;15.73;;
80788;SDS011;70191;51.114;8.678;2023-06-10T00:52:27;17.50;;;16.40;;
80788;SDS011;70191;51.114;8.678;2023-06-10T00:54:54;16.63;;;15.52;;
80788;SDS011;70191;51.114;8.678;2023-06-10T00:57:19;17.33;;;16.23;;
80788;SDS011;70191;51.114;8.678;2023-06-10T00:59:47;16.33;;;15.27;;
80788;SDS011;70191;51.114;8.678;2023-06-10T01:02:14;17.30;;;16.10;;
80788;SDS011;70191;51.114;8.678;2023-06-10T01:04:39;17.05;;;16.05;;
80788;SDS011;70191;51.114;8.678;2023-06-10T01:09:59;17.88;;;16.80;;
80788;SDS011;70191;51.114;8.678;2023-06-10T01:12:45;16.60;;;15.50;;
80788;SDS011;70191;51.114;8.678;2023-06-10T01:15:17;18.05;;;16.85;;
80788;SDS011;70191;51.114;8.678;2023-06-10T01:20:23;16.98;;;15.88;;
80788;SDS011;70191;51.114;8.678;2023-06-10T01:22:49;16.92;;;15.82;;
80788;SDS011;70191;51.114;8.678;2023-06-10T01:25:15;16.17;;;15.18;;
80788;SDS011;70191;51.114;8.678;2023-06-10T01:27:42;17.83;;;16.73;;
80788;SDS011;70191;51.114;8.678;2023-06-10T01:30:12;16.48;;;15.48;;
80788;SDS011;70191;51.114;8.678;2023-06-10T01:32:45;17.30;;;16.30;;
80788;SDS011;70191;51.114;8.678;2023-06-10T01:35:15;16.55;;;15.50;;
80788;SDS011;70191;51.114;8.678;2023-06-10T01:37:42;17.65;;;16.45;;
80788;SDS011;70191;51.114;8.678;2023-06-10T01:40:10;16.48;;;15.48;;
80788;SDS011;70191;51.114;8.678;2023-06-10T01:42:37;15.82;;;14.77;;
80788;SDS011;70191;51.114;8.678;2023-06-10T01:45:03;16.98;;;15.88;;
80788;SDS011;70191;51.114;8.678;2023-06-10T01:47:29;16.80;;;15.80;;
80788;SDS011;70191;51.114;8.678;2023-06-10T01:49:55;16.10;;;15.20;;
80788;SDS011;70191;51.114;8.678;2023-06-10T01:52:21;15.63;;;14.73;;
80788;SDS011;70191;51.114;8.678;2023-06-10T01:54:46;15.75;;;14.75;;
80788;SDS011;70191;51.114;8.678;2023-06-10T01:57:12;16.60;;;15.43;;
80788;SDS011;70191;51.114;8.678;2023-06-10T01:59:37;15.80;;;14.70;;
80788;SDS011;70191;51.114;8.678;2023-06-10T02:02:03;17.23;;;16.10;;
80788;SDS011;70191;51.114;8.678;2023-06-10T02:04:30;16.10;;;15.13;;
80788;SDS011;70191;51.114;8.678;2023-06-10T02:06:55;17.27;;;16.23;;
80788;SDS011;70191;51.114;8.678;2023-06-10T02:09:21;18.45;;;17.17;;
80788;SDS011;70191;51.114;8.678;2023-06-10T02:11:47;17.20;;;16.20;;
80788;SDS011;70191;51.114;8.678;2023-06-10T02:14:13;16.52;;;15.52;;
80788;SDS011;70191;51.114;8.678;2023-06-10T02:16:39;14.82;;;13.93;;
80788;SDS011;70191;51.114;8.678;2023-06-10T02:19:05;15.77;;;14.88;;
80788;SDS011;70191;51.114;8.678;2023-06-10T02:21:31;16.27;;;15.02;;
80788;SDS011;70191;51.114;8.678;2023-06-10T02:23:57;16.38;;;15.27;;
80788;SDS011;70191;51.114;8.678;2023-06-10T02:26:22;15.18;;;14.27;;
80788;SDS011;70191;51.114;8.678;2023-06-10T02:28:50;17.02;;;15.90;;
80788;SDS011;70191;51.114;8.678;2023-06-10T02:31:17;15.60;;;14.68;;
80788;SDS011;70191;51.114;8.678;2023-06-10T02:33:43;16.13;;;15.05;;
80788;SDS011;70191;51.114;8.678;2023-06-10T02:36:09;16.63;;;15.63;;
80788;SDS011;70191;51.114;8.678;2023-06-10T02:38:38;16.35;;;15.30;;
80788;SDS011;70191;51.114;8.678;2023-06-10T02:41:04;17.00;;;15.90;;
80788;SDS011;70191;51.114;8.678;2023-06-10T02:43:30;16.02;;;15.07;;
80788;SDS011;70191;51.114;8.678;2023-06-10T02:45:55;15.65;;;14.70;;
80788;SDS011;70191;51.114;8.678;2023-06-10T02:48:23;16.50;;;15.50;;
80788;SDS011;70191;51.114;8.678;2023-06-10T02:50:49;16.67;;;15.68;;
80788;SDS011;70191;51.114;8.678;2023-06-10T02:53:14;16.63;;;15.63;;
80788;SDS011;70191;51.114;8.678;2023-06-10T02:55:40;17.05;;;15.95;;
80788;SDS011;70191;51.114;8.678;2023-06-10T02:58:06;16.33;;;15.32;;
80788;SDS011;70191;51.114;8.678;2023-06-10T03:00:32;16.27;;;15.27;;
80788;SDS011;70191;51.114;8.678;2023-06-10T03:02:58;16.55;;;15.43;;
80788;SDS011;70191;51.114;8.678;2023-06-10T03:05:25;16.98;;;15.88;;
80788;SDS011;70191;51.114;8.678;2023-06-10T03:07:51;15.18;;;14.25;;
80788;SDS011;70191;51.114;8.678;2023-06-10T03:10:16;16.42;;;15.43;;
80788;SDS011;70191;51.114;8.678;2023-06-10T03:12:42;16.20;;;15.30;;
80788;SDS011;70191;51.114;8.678;2023-06-10T03:15:07;17.58;;;16.58;;
80788;SDS011;70191;51.114;8.678;2023-06-10T03:17:33;16.80;;;15.80;;
80788;SDS011;70191;51.114;8.678;2023-06-10T03:19:58;16.38;;;15.38;;
80788;SDS011;70191;51.114;8.678;2023-06-10T03:22:24;18.08;;;17.08;;
80788;SDS011;70191;51.114;8.678;2023-06-10T03:24:50;17.50;;;16.40;;
80788;SDS011;70191;51.114;8.678;2023-06-10T03:27:16;17.10;;;16.05;;
80788;SDS011;70191;51.114;8.678;2023-06-10T03:29:42;17.10;;;16.10;;
80788;SDS011;70191;51.114;8.678;2023-06-10T03:32:08;16.23;;;15.32;;
80788;SDS011;70191;51.114;8.678;2023-06-10T03:34:33;16.65;;;15.65;;
80788;SDS011;70191;51.114;8.678;2023-06-10T03:36:59;17.75;;;16.60;;
80788;SDS011;70191;51.114;8.678;2023-06-10T03:39:25;17.23;;;16.15;;
80788;SDS011;70191;51.114;8.678;2023-06-10T03:41:53;18.17;;;17.08;;
80788;SDS011;70191;51.114;8.678;2023-06-10T03:44:19;17.45;;;16.45;;
80788;SDS011;70191;51.114;8.678;2023-06-10T03:46:45;17.50;;;16.48;;
80788;SDS011;70191;51.114;8.678;2023-06-10T03:49:10;16.83;;;15.82;;
80788;SDS011;70191;51.114;8.678;2023-06-10T03:51:36;17.33;;;16.33;;
80788;SDS011;70191;51.114;8.678;2023-06-10T03:54:02;16.88;;;15.88;;
80788;SDS011;70191;51.114;8.678;2023-06-10T03:56:28;17.35;;;16.35;;
80788;SDS011;70191;51.114;8.678;2023-06-10T03:58:53;17.70;;;16.50;;
80788;SDS011;70191;51.114;8.678;2023-06-10T04:01:19;16.75;;;15.75;;
80788;SDS011;70191;51.114;8.678;2023-06-10T04:03:46;17.65;;;16.55;;
80788;SDS011;70191;51.114;8.678;2023-06-10T04:06:16;17.55;;;16.45;;
80788;SDS011;70191;51.114;8.678;2023-06-10T04:08:41;17.70;;;16.60;;
80788;SDS011;70191;51.114;8.678;2023-06-10T04:11:07;17.70;;;16.70;;
80788;SDS011;70191;51.114;8.678;2023-06-10T04:13:33;17.30;;;16.30;;
80788;SDS011;70191;51.114;8.678;2023-06-10T04:15:59;17.35;;;16.35;;
80788;SDS011;70191;51.114;8.678;2023-06-10T04:18:25;17.52;;;16.33;;
80788;SDS011;70191;51.114;8.678;2023-06-10T04:20:51;17.15;;;16.15;;
80788;SDS011;70191;51.114;8.678;2023-06-10T04:23:16;16.65;;;15.65;;
80788;SDS011;70191;51.114;8.678;2023-06-10T04:25:42;17.33;;;16.23;;
80788;SDS011;70191;51.114;8.678;2023-06-10T04:28:07;17.15;;;16.15;;
80788;SDS011;70191;51.114;8.678;2023-06-10T04:30:33;17.50;;;16.50;;
80788;SDS011;70191;51.114;8.678;2023-06-10T04:32:58;17.88;;;16.70;;
80788;SDS011;70191;51.114;8.678;2023-06-10T04:35:24;18.05;;;16.98;;
80788;SDS011;70191;51.114;8.678;2023-06-10T04:37:52;17.63;;;16.52;;
80788;SDS011;70191;51.114;8.678;2023-06-10T04:40:18;18.50;;;17.30;;
80788;SDS011;70191;51.114;8.678;2023-06-10T04:42:44;17.85;;;16.77;;
80788;SDS011;70191;51.114;8.678;2023-06-10T04:45:10;17.80;;;16.77;;
80788;SDS011;70191;51.114;8.678;2023-06-10T04:47:35;17.55;;;16.45;;
80788;SDS011;70191;51.114;8.678;2023-06-10T04:50:01;17.08;;;16.15;;
80788;SDS011;70191;51.114;8.678;2023-06-10T04:52:28;17.95;;;16.83;;
80788;SDS011;70191;51.114;8.678;2023-06-10T04:54:53;17.50;;;16.45;;
80788;SDS011;70191;51.114;8.678;2023-06-10T04:57:19;17.83;;;16.73;;
80788;SDS011;70191;51.114;8.678;2023-06-10T04:59:45;18.10;;;17.08;;
80788;SDS011;70191;51.114;8.678;2023-06-10T05:02:11;17.17;;;16.17;;
80788;SDS011;70191;51.114;8.678;2023-06-10T05:04:37;18.23;;;17.10;;
80788;SDS011;70191;51.114;8.678;2023-06-10T05:07:02;17.73;;;16.70;;
80788;SDS011;70191;51.114;8.678;2023-06-10T05:09:28;17.20;;;16.20;;
80788;SDS011;70191;51.114;8.678;2023-06-10T05:11:55;17.10;;;16.10;;
80788;SDS011;70191;51.114;8.678;2023-06-10T05:14:20;16.90;;;15.90;;
80788;SDS011;70191;51.114;8.678;2023-06-10T05:16:47;17.13;;;16.13;;
80788;SDS011;70191;51.114;8.678;2023-06-10T05:19:13;16.80;;;15.80;;
80788;SDS011;70191;51.114;8.678;2023-06-10T05:21:38;16.88;;;15.88;;
80788;SDS011;70191;51.114;8.678;2023-06-10T05:24:04;17.60;;;16.50;;
80788;SDS011;70191;51.114;8.678;2023-06-10T05:26:30;17.50;;;16.40;;
80788;SDS011;70191;51.114;8.678;2023-06-10T05:28:58;17.25;;;16.23;;
80788;SDS011;70191;51.114;8.678;2023-06-10T05:31:23;16.80;;;15.90;;
80788;SDS011;70191;51.114;8.678;2023-06-10T05:33:49;16.80;;;15.90;;
80788;SDS011;70191;51.114;8.678;2023-06-10T05:36:14;17.08;;;16.08;;
80788;SDS011;70191;51.114;8.678;2023-06-10T05:38:40;17.50;;;16.40;;
80788;SDS011;70191;51.114;8.678;2023-06-10T05:41:05;17.63;;;16.52;;
80788;SDS011;70191;51.114;8.678;2023-06-10T05:43:31;16.73;;;15.68;;
80788;SDS011;70191;51.114;8.678;2023-06-10T05:45:56;17.55;;;16.45;;
80788;SDS011;70191;51.114;8.678;2023-06-10T05:48:22;17.80;;;16.80;;
80788;SDS011;70191;51.114;8.678;2023-06-10T05:50:48;17.40;;;16.40;;
80788;SDS011;70191;51.114;8.678;2023-06-10T05:53:14;18.05;;;16.95;;
80788;SDS011;70191;51.114;8.678;2023-06-10T05:55:43;17.15;;;16.17;;
80788;SDS011;70191;51.114;8.678;2023-06-10T05:58:10;18.23;;;17.13;;
80788;SDS011;70191;51.114;8.678;2023-06-10T06:00:37;18.35;;;16.83;;
80788;SDS011;70191;51.114;8.678;2023-06-10T06:03:03;21.65;;;19.27;;
80788;SDS011;70191;51.114;8.678;2023-06-10T06:05:30;25.55;;;20.90;;
80788;SDS011;70191;51.114;8.678;2023-06-10T06:08:00;22.75;;;20.55;;
80788;SDS011;70191;51.114;8.678;2023-06-10T06:10:32;22.15;;;19.95;;
80788;SDS011;70191;51.114;8.678;2023-06-10T06:12:58;25.48;;;20.40;;
80788;SDS011;70191;51.114;8.678;2023-06-10T06:15:24;23.63;;;20.83;;
80788;SDS011;70191;51.114;8.678;2023-06-10T06:17:50;23.20;;;20.80;;
80788;SDS011;70191;51.114;8.678;2023-06-10T06:20:22;23.15;;;21.05;;
80788;SDS011;70191;51.114;8.678;2023-06-10T06:22:48;21.40;;;19.73;;
80788;SDS011;70191;51.114;8.678;2023-06-10T06:25:13;21.95;;;20.25;;
80788;SDS011;70191;51.114;8.678;2023-06-10T06:27:39;22.63;;;20.60;;
80788;SDS011;70191;51.114;8.678;2023-06-10T06:30:05;23.27;;;21.17;;
80788;SDS011;70191;51.114;8.678;2023-06-10T06:32:31;23.70;;;21.55;;
80788;SDS011;70191;51.114;8.678;2023-06-10T06:34:57;23.98;;;21.67;;
80788;SDS011;70191;51.114;8.678;2023-06-10T06:37:24;23.23;;;21.02;;
80788;SDS011;70191;51.114;8.678;2023-06-10T06:39:50;23.20;;;21.13;;
80788;SDS011;70191;51.114;8.678;2023-06-10T06:42:19;24.65;;;22.30;;
80788;SDS011;70191;51.114;8.678;2023-06-10T06:44:46;23.38;;;21.42;;
80788;SDS011;70191;51.114;8.678;2023-06-10T06:47:12;23.05;;;21.23;;
80788;SDS011;70191;51.114;8.678;2023-06-10T06:49:38;23.70;;;21.63;;
80788;SDS011;70191;51.114;8.678;2023-06-10T06:52:03;23.77;;;21.55;;
80788;SDS011;70191;51.114;8.678;2023-06-10T06:54:29;23.98;;;21.95;;
80788;SDS011;70191;51.114;8.678;2023-06-10T06:56:55;23.52;;;21.58;;
80788;SDS011;70191;51.114;8.678;2023-06-10T06:59:21;22.73;;;20.92;;
80788;SDS011;70191;51.114;8.678;2023-06-10T07:01:46;22.92;;;21.02;;
80788;SDS011;70191;51.114;8.678;2023-06-10T07:04:14;23.15;;;21.15;;
80788;SDS011;70191;51.114;8.678;2023-06-10T07:06:40;23.05;;;21.02;;
80788;SDS011;70191;51.114;8.678;2023-06-10T07:09:07;23.17;;;21.58;;
80788;SDS011;70191;51.114;8.678;2023-06-10T07:11:34;23.38;;;21.08;;
80788;SDS011;70191;51.114;8.678;2023-06-10T07:13:59;23.85;;;21.73;;
80788;SDS011;70191;51.114;8.678;2023-06-10T07:16:25;22.58;;;20.67;;
80788;SDS011;70191;51.114;8.678;2023-06-10T07:18:50;22.15;;;20.50;;
80788;SDS011;70191;51.114;8.678;2023-06-10T07:21:17;24.02;;;21.90;;
80788;SDS011;70191;51.114;8.678;2023-06-10T07:23:42;22.83;;;21.10;;
80788;SDS011;70191;51.114;8.678;2023-06-10T07:26:08;22.63;;;20.63;;
80788;SDS011;70191;51.114;8.678;2023-06-10T07:28:36;24.60;;;22.58;;
80788;SDS011;70191;51.114;8.678;2023-06-10T07:31:02;22.75;;;21.17;;
80788;SDS011;70191;51.114;8.678;2023-06-10T07:33:28;23.70;;;21.83;;
80788;SDS011;70191;51.114;8.678;2023-06-10T07:35:53;26.25;;;23.50;;
80788;SDS011;70191;51.114;8.678;2023-06-10T07:38:19;39.13;;;23.70;;
80788;SDS011;70191;51.114;8.678;2023-06-10T07:40:45;24.48;;;22.52;;
80788;SDS011;70191;51.114;8.678;2023-06-10T07:43:10;24.63;;;22.63;;
80788;SDS011;70191;51.114;8.678;2023-06-10T07:45:36;23.23;;;21.33;;
80788;SDS011;70191;51.114;8.678;2023-06-10T07:48:02;24.35;;;21.95;;
80788;SDS011;70191;51.114;8.678;2023-06-10T07:50:27;23.65;;;21.60;;
80788;SDS011;70191;51.114;8.678;2023-06-10T07:52:53;22.83;;;21.15;;
80788;SDS011;70191;51.114;8.678;2023-06-10T07:55:18;22.67;;;20.98;;
80788;SDS011;70191;51.114;8.678;2023-06-10T07:57:44;23.50;;;21.80;;
80788;SDS011;70191;51.114;8.678;2023-06-10T08:00:10;22.67;;;20.75;;
80788;SDS011;70191;51.114;8.678;2023-06-10T08:02:35;23.17;;;21.50;;
80788;SDS011;70191;51.114;8.678;2023-06-10T08:05:02;23.88;;;21.33;;
80788;SDS011;70191;51.114;8.678;2023-06-10T08:07:28;24.60;;;22.42;;
80788;SDS011;70191;51.114;8.678;2023-06-10T08:09:53;28.48;;;25.17;;
80788;SDS011;70191;51.114;8.678;2023-06-10T08:12:19;27.42;;;24.92;;
80788;SDS011;70191;51.114;8.678;2023-06-10T08:14:45;40.53;;;25.95;;
80788;SDS011;70191;51.114;8.678;2023-06-10T08:17:10;28.73;;;25.73;;
80788;SDS011;70191;51.114;8.678;2023-06-10T08:19:36;29.63;;;27.00;;
80788;SDS011;70191;51.114;8.678;2023-06-10T08:22:02;28.00;;;25.40;;
80788;SDS011;70191;51.114;8.678;2023-06-10T08:24:27;26.73;;;24.23;;
80788;SDS011;70191;51.114;8.678;2023-06-10T08:26:53;26.50;;;23.73;;
80788;SDS011;70191;51.114;8.678;2023-06-10T08:29:19;27.00;;;24.30;;
80788;SDS011;70191;51.114;8.678;2023-06-10T08:31:45;25.25;;;23.08;;
80788;SDS011;70191;51.114;8.678;2023-06-10T08:34:10;25.35;;;22.98;;
80788;SDS011;70191;51.114;8.678;2023-06-10T08:36:36;25.45;;;23.25;;
80788;SDS011;70191;51.114;8.678;2023-06-10T08:39:02;24.83;;;22.77;;
80788;SDS011;70191;51.114;8.678;2023-06-10T08:41:28;23.15;;;21.15;;
80788;SDS011;70191;51.114;8.678;2023-06-10T08:46:51;24.15;;;21.88;;
80788;SDS011;70191;51.114;8.678;2023-06-10T08:49:20;24.50;;;22.15;;
80788;SDS011;70191;51.114;8.678;2023-06-10T08:51:49;24.23;;;22.13;;
80788;SDS011;70191;51.114;8.678;2023-06-10T08:54:17;24.52;;;22.05;;
80788;SDS011;70191;51.114;8.678;2023-06-10T08:56:45;23.75;;;21.63;;
80788;SDS011;70191;51.114;8.678;2023-06-10T08:59:14;24.30;;;22.38;;
80788;SDS011;70191;51.114;8.678;2023-06-10T09:01:41;23.50;;;21.02;;
80788;SDS011;70191;51.114;8.678;2023-06-10T09:04:08;21.98;;;20.10;;
80788;SDS011;70191;51.114;8.678;2023-06-10T09:06:34;22.45;;;20.92;;
80788;SDS011;70191;51.114;8.678;2023-06-10T09:09:01;22.67;;;20.63;;
80788;SDS011;70191;51.114;8.678;2023-06-10T09:11:27;23.00;;;20.98;;
80788;SDS011;70191;51.114;8.678;2023-06-10T09:13:53;22.65;;;20.85;;
80788;SDS011;70191;51.114;8.678;2023-06-10T09:16:19;21.75;;;20.05;;
80788;SDS011;70191;51.114;8.678;2023-06-10T09:18:44;22.92;;;21.20;;
80788;SDS011;70191;51.114;8.678;2023-06-10T09:21:10;22.92;;;20.67;;
80788;SDS011;70191;51.114;8.678;2023-06-10T09:23:36;22.75;;;20.70;;
80788;SDS011;70191;51.114;8.678;2023-06-10T09:26:02;21.50;;;19.73;;
80788;SDS011;70191;51.114;8.678;2023-06-10T09:28:32;22.17;;;20.48;;
80788;SDS011;70191;51.114;8.678;2023-06-10T09:31:04;22.30;;;20.45;;
80788;SDS011;70191;51.114;8.678;2023-06-10T09:33:32;22.02;;;20.27;;
80788;SDS011;70191;51.114;8.678;2023-06-10T09:35:59;21.92;;;20.25;;
80788;SDS011;70191;51.114;8.678;2023-06-10T09:38:29;21.27;;;19.77;;
80788;SDS011;70191;51.114;8.678;2023-06-10T09:40:56;21.92;;;20.25;;
80788;SDS011;70191;51.114;8.678;2023-06-10T09:43:22;21.55;;;19.95;;
80788;SDS011;70191;51.114;8.678;2023-06-10T09:45:48;22.60;;;20.85;;
80788;SDS011;70191;51.114;8.678;2023-06-10T09:48:15;23.20;;;21.30;;
80788;SDS011;70191;51.114;8.678;2023-06-10T09:50:43;24.08;;;22.15;;
80788;SDS011;70191;51.114;8.678;2023-06-10T09:53:10;23.95;;;22.15;;
80788;SDS011;70191;51.114;8.678;2023-06-10T09:55:39;25.35;;;23.25;;
80788;SDS011;70191;51.114;8.678;2023-06-10T09:58:06;25.30;;;22.58;;
80788;SDS011;70191;51.114;8.678;2023-06-10T10:00:32;24.92;;;22.50;;
80788;SDS011;70191;51.114;8.678;2023-06-10T10:02:58;24.48;;;22.08;;
80788;SDS011;70191;51.114;8.678;2023-06-10T10:05:24;24.10;;;22.17;;
80788;SDS011;70191;51.114;8.678;2023-06-10T10:07:50;23.88;;;21.88;;
80788;SDS011;70191;51.114;8.678;2023-06-10T10:10:16;24.13;;;22.13;;
80788;SDS011;70191;51.114;8.678;2023-06-10T10:12:43;25.20;;;23.05;;
80788;SDS011;70191;51.114;8.678;2023-06-10T10:15:12;23.63;;;21.48;;
80788;SDS011;70191;51.114;8.678;2023-06-10T10:20:17;23.20;;;21.30;;
80788;SDS011;70191;51.114;8.678;2023-06-10T10:22:46;22.05;;;20.42;;
80788;SDS011;70191;51.114;8.678;2023-06-10T10:25:16;23.52;;;21.60;;
80788;SDS011;70191;51.114;8.678;2023-06-10T10:30:16;23.73;;;21.98;;
80788;SDS011;70191;51.114;8.678;2023-06-10T10:32:52;24.48;;;22.45;;
80788;SDS011;70191;51.114;8.678;2023-06-10T10:35:29;23.83;;;21.90;;
80788;SDS011;70191;51.114;8.678;2023-06-10T10:37:57;23.75;;;21.60;;
80788;SDS011;70191;51.114;8.678;2023-06-10T10:40:23;22.40;;;20.70;;
80788;SDS011;70191;51.114;8.678;2023-06-10T10:42:50;22.90;;;21.17;;
80788;SDS011;70191;51.114;8.678;2023-06-10T10:45:17;24.00;;;22.10;;
80788;SDS011;70191;51.114;8.678;2023-06-10T10:47:43;22.88;;;21.23;;
80788;SDS011;70191;51.114;8.678;2023-06-10T10:50:17;23.33;;;21.33;;
80788;SDS011;70191;51.114;8.678;2023-06-10T10:53:05;23.10;;;21.30;;
80788;SDS011;70191;51.114;8.678;2023-06-10T10:55:30;20.73;;;19.25;;
80788;SDS011;70191;51.114;8.678;2023-06-10T10:58:03;22.35;;;20.75;;
80788;SDS011;70191;51.114;8.678;2023-06-10T11:00:30;21.15;;;19.65;;
80788;SDS011;70191;51.114;8.678;2023-06-10T11:02:58;22.73;;;20.88;;
80788;SDS011;70191;51.114;8.678;2023-06-10T11:05:38;20.83;;;19.42;;
80788;SDS011;70191;51.114;8.678;2023-06-10T11:08:14;20.40;;;18.92;;
80788;SDS011;70191;51.114;8.678;2023-06-10T11:10:41;22.42;;;20.58;;
80788;SDS011;70191;51.114;8.678;2023-06-10T11:13:18;21.63;;;19.83;;
80788;SDS011;70191;51.114;8.678;2023-06-10T11:15:46;21.75;;;20.17;;
80788;SDS011;70191;51.114;8.678;2023-06-10T11:18:25;20.90;;;19.40;;
80788;SDS011;70191;51.114;8.678;2023-06-10T11:20:52;21.95;;;20.25;;
80788;SDS011;70191;51.114;8.678;2023-06-10T11:28:40;21.88;;;20.38;;
80788;SDS011;70191;51.114;8.678;2023-06-10T11:31:08;21.10;;;19.67;;
80788;SDS011;70191;51.114;8.678;2023-06-10T11:33:44;22.38;;;20.33;;
80788;SDS011;70191;51.114;8.678;2023-06-10T11:36:11;21.85;;;20.42;;
80788;SDS011;70191;51.114;8.678;2023-06-10T11:38:36;21.73;;;19.98;;
80788;SDS011;70191;51.114;8.678;2023-06-10T11:41:02;22.25;;;20.40;;
80788;SDS011;70191;51.114;8.678;2023-06-10T11:43:27;21.20;;;19.55;;
80788;SDS011;70191;51.114;8.678;2023-06-10T11:45:54;21.35;;;19.83;;
80788;SDS011;70191;51.114;8.678;2023-06-10T11:48:21;21.15;;;19.58;;
80788;SDS011;70191;51.114;8.678;2023-06-10T11:50:46;21.58;;;19.88;;
80788;SDS011;70191;51.114;8.678;2023-06-10T11:53:12;21.70;;;20.13;;
80788;SDS011;70191;51.114;8.678;2023-06-10T11:58:20;22.38;;;20.88;;
80788;SDS011;70191;51.114;8.678;2023-06-10T12:00:47;21.08;;;19.67;;
80788;SDS011;70191;51.114;8.678;2023-06-10T12:03:18;21.98;;;20.27;;
80788;SDS011;70191;51.114;8.678;2023-06-10T12:08:26;21.65;;;20.15;;
80788;SDS011;70191;51.114;8.678;2023-06-10T12:10:52;23.35;;;21.45;;
80788;SDS011;70191;51.114;8.678;2023-06-10T12:13:18;22.08;;;20.30;;
80788;SDS011;70191;51.114;8.678;2023-06-10T12:15:44;21.25;;;19.65;;
80788;SDS011;70191;51.114;8.678;2023-06-10T12:18:16;22.17;;;20.15;;
80788;SDS011;70191;51.114;8.678;2023-06-10T12:20:43;21.98;;;20.27;;
80788;SDS011;70191;51.114;8.678;2023-06-10T12:23:10;21.33;;;19.73;;
80788;SDS011;70191;51.114;8.678;2023-06-10T12:25:36;22.42;;;20.58;;
80788;SDS011;70191;51.114;8.678;2023-06-10T12:28:03;22.67;;;20.88;;
80788;SDS011;70191;51.114;8.678;2023-06-10T12:30:29;23.05;;;21.05;;
80788;SDS011;70191;51.114;8.678;2023-06-10T12:32:56;21.67;;;19.95;;
80788;SDS011;70191;51.114;8.678;2023-06-10T12:35:22;21.67;;;20.10;;
80788;SDS011;70191;51.114;8.678;2023-06-10T12:37:59;20.48;;;19.05;;
80788;SDS011;70191;51.114;8.678;2023-06-10T12:40:30;21.98;;;20.27;;
80788;SDS011;70191;51.114;8.678;2023-06-10T12:42:57;19.05;;;17.85;;
80788;SDS011;70191;51.114;8.678;2023-06-10T12:45:27;20.52;;;18.92;;
80788;SDS011;70191;51.114;8.678;2023-06-10T12:48:04;20.33;;;18.92;;
80788;SDS011;70191;51.114;8.678;2023-06-10T12:50:41;21.65;;;19.63;;
80788;SDS011;70191;51.114;8.678;2023-06-10T12:53:08;20.77;;;19.27;;
80788;SDS011;70191;51.114;8.678;2023-06-10T12:55:34;21.58;;;19.88;;
80788;SDS011;70191;51.114;8.678;2023-06-10T12:58:00;21.33;;;19.88;;
80788;SDS011;70191;51.114;8.678;2023-06-10T13:00:26;22.67;;;20.88;;
80788;SDS011;70191;51.114;8.678;2023-06-10T13:02:55;22.90;;;21.15;;
80788;SDS011;70191;51.114;8.678;2023-06-10T13:05:21;21.13;;;19.70;;
80788;SDS011;70191;51.114;8.678;2023-06-10T13:07:47;21.38;;;19.55;;
80788;SDS011;70191;51.114;8.678;2023-06-10T13:10:13;24.35;;;22.23;;
80788;SDS011;70191;51.114;8.678;2023-06-10T13:12:39;23.95;;;22.13;;
80788;SDS011;70191;51.114;8.678;2023-06-10T13:15:05;23.75;;;21.75;;
80788;SDS011;70191;51.114;8.678;2023-06-10T13:17:31;23.27;;;21.27;;
80788;SDS011;70191;51.114;8.678;2023-06-10T13:19:59;20.85;;;19.50;;
80788;SDS011;70191;51.114;8.678;2023-06-10T13:22:24;22.20;;;20.70;;
80788;SDS011;70191;51.114;8.678;2023-06-10T13:24:51;22.67;;;20.80;;
80788;SDS011;70191;51.114;8.678;2023-06-10T13:27:17;23.98;;;21.58;;
80788;SDS011;70191;51.114;8.678;2023-06-10T13:29:42;22.25;;;20.65;;
80788;SDS011;70191;51.114;8.678;2023-06-10T13:32:08;21.45;;;19.85;;
80788;SDS011;70191;51.114;8.678;2023-06-10T13:34:33;23.13;;;21.30;;
80788;SDS011;70191;51.114;8.678;2023-06-10T13:37:00;22.70;;;20.92;;
80788;SDS011;70191;51.114;8.678;2023-06-10T13:39:26;23.13;;;21.33;;
80788;SDS011;70191;51.114;8.678;2023-06-10T13:41:52;22.63;;;20.75;;
80788;SDS011;70191;51.114;8.678;2023-06-10T13:44:17;22.17;;;20.67;;
80788;SDS011;70191;51.114;8.678;2023-06-10T13:46:43;22.25;;;20.55;;
80788;SDS011;70191;51.114;8.678;2023-06-10T13:49:08;21.75;;;19.88;;
80788;SDS011;70191;51.114;8.678;2023-06-10T13:51:34;21.77;;;20.15;;
80788;SDS011;70191;51.114;8.678;2023-06-10T13:54:00;23.17;;;21.23;;
80788;SDS011;70191;51.114;8.678;2023-06-10T13:56:25;23.55;;;21.60;;
80788;SDS011;70191;51.114;8.678;2023-06-10T13:58:51;22.30;;;20.30;;
80788;SDS011;70191;51.114;8.678;2023-06-10T14:01:16;23.08;;;21.30;;
80788;SDS011;70191;51.114;8.678;2023-06-10T14:03:42;27.48;;;24.95;;
80788;SDS011;70191;51.114;8.678;2023-06-10T14:06:07;22.85;;;21.08;;
80788;SDS011;70191;51.114;8.678;2023-06-10T14:08:33;24.50;;;22.35;;
80788;SDS011;70191;51.114;8.678;2023-06-10T14:10:59;26.50;;;24.20;;
80788;SDS011;70191;51.114;8.678;2023-06-10T14:13:25;30.40;;;27.17;;
80788;SDS011;70191;51.114;8.678;2023-06-10T14:15:50;36.88;;;31.45;;
80788;SDS011;70191;51.114;8.678;2023-06-10T14:18:16;32.28;;;29.05;;
80788;SDS011;70191;51.114;8.678;2023-06-10T14:20:41;34.08;;;30.20;;
80788;SDS011;70191;51.114;8.678;2023-06-10T14:23:07;35.55;;;32.25;;
80788;SDS011;70191;51.114;8.678;2023-06-10T14:25:32;40.65;;;33.30;;
80788;SDS011;70191;51.114;8.678;2023-06-10T14:27:58;35.80;;;32.05;;
80788;SDS011;70191;51.114;8.678;2023-06-10T14:30:23;41.38;;;34.80;;
80788;SDS011;70191;51.114;8.678;2023-06-10T14:32:49;39.67;;;33.83;;
80788;SDS011;70191;51.114;8.678;2023-06-10T14:35:14;36.67;;;32.53;;
80788;SDS011;70191;51.114;8.678;2023-06-10T14:37:40;37.42;;;33.20;;
80788;SDS011;70191;51.114;8.678;2023-06-10T14:40:06;40.55;;;34.30;;
80788;SDS011;70191;51.114;8.678;2023-06-10T14:42:32;38.70;;;34.72;;